sensor_id;sensor_type;location;lat;lon;timestamp;pressure;altitude;pressure_sealevel;temperature;humidity
33913;BME280;20200;52.084;5.224;2023-04-26T00:02:20;152940.0;;;16.59;35.57
33913;BME280;20200;52.084;5.224;2023-04-26T00:03:56;152983.0;;;16.75;35.15
33913;BME280;20200;52.084;5.224;2023-04-26T00:05:32;153073.0;;;17.11;34.33
33913;BME280;20200;52.084;5.224;2023-04-26T00:08:44;153078.0;;;17.12;34.24
33913;BME280;20200;52.084;5.224;2023-04-26T00:10:21;153119.0;;;17.28;33.81
33913;BME280;20200;52.084;5.224;2023-04-26T00:11:57;153105.0;;;17.23;33.89
33913;BME280;20200;52.084;5.224;2023-04-26T00:13:34;153122.0;;;17.3;33.71
33913;BME280;20200;52.084;5.224;2023-04-26T00:16:46;153103.0;;;17.22;33.8
33913;BME280;20200;52.084;5.224;2023-04-26T00:18:22;153071.0;;;17.11;33.82
33913;BME280;20200;52.084;5.224;2023-04-26T00:19:59;152964.0;;;16.68;34.49
33913;BME280;20200;52.084;5.224;2023-04-26T00:23:12;153037.0;;;16.96;33.96
33913;BME280;20200;52.084;5.224;2023-04-26T00:24:48;152971.0;;;16.7;34.43
33913;BME280;20200;52.084;5.224;2023-04-26T00:26:24;152918.0;;;16.5;34.86
33913;BME280;20200;52.084;5.224;2023-04-26T00:29:36;152906.0;;;16.45;34.92
33913;BME280;20200;52.084;5.224;2023-04-26T00:31:13;152834.0;;;16.16;35.39
33913;BME280;20200;52.084;5.224;2023-04-26T00:32:49;152846.0;;;16.2;35.26
33913;BME280;20200;52.084;5.224;2023-04-26T00:34:31;152847.0;;;16.21;35.31
33913;BME280;20200;52.084;5.224;2023-04-26T00:37:43;152790.0;;;15.98;35.67
33913;BME280;20200;52.084;5.224;2023-04-26T00:39:19;152824.0;;;16.11;35.39
33913;BME280;20200;52.084;5.224;2023-04-26T00:40:55;152958.0;;;16.65;34.36
33913;BME280;20200;52.084;5.224;2023-04-26T00:44:07;152957.0;;;16.64;34.32
33913;BME280;20200;52.084;5.224;2023-04-26T00:45:44;152993.0;;;16.79;34.08
33913;BME280;20200;52.084;5.224;2023-04-26T00:47:20;152941.0;;;16.59;34.44
33913;BME280;20200;52.084;5.224;2023-04-26T00:50:32;152975.0;;;16.71;34.17
33913;BME280;20200;52.084;5.224;2023-04-26T00:52:08;153028.0;;;16.93;33.81
33913;BME280;20200;52.084;5.224;2023-04-26T00:53:45;152967.0;;;16.68;34.35
33913;BME280;20200;52.084;5.224;2023-04-26T00:55:22;152877.0;;;16.34;35.11
33913;BME280;20200;52.084;5.224;2023-04-26T00:58:37;152930.0;;;16.53;34.68
33913;BME280;20200;52.084;5.224;2023-04-26T01:00:14;152834.0;;;16.15;35.5
33913;BME280;20200;52.084;5.224;2023-04-26T01:01:50;152695.0;;;15.6;36.56
33913;BME280;20200;52.084;5.224;2023-04-26T01:05:03;152697.0;;;15.62;36.51
33913;BME280;20200;52.084;5.224;2023-04-26T01:06:39;152794.0;;;15.99;35.6
33913;BME280;20200;52.084;5.224;2023-04-26T01:08:17;152868.0;;;16.29;35.12
33913;BME280;20200;52.084;5.224;2023-04-26T01:11:31;152968.0;;;16.68;34.4
33913;BME280;20200;52.084;5.224;2023-04-26T01:13:08;152921.0;;;16.5;34.49
33913;BME280;20200;52.084;5.224;2023-04-26T01:14:45;152815.0;;;16.09;35.03
33913;BME280;20200;52.084;5.224;2023-04-26T01:16:22;152805.0;;;16.04;35.06
33913;BME280;20200;52.084;5.224;2023-04-26T01:19:34;152707.0;;;15.65;35.61
33913;BME280;20200;52.084;5.224;2023-04-26T01:21:10;152744.0;;;15.8;35.17
33913;BME280;20200;52.084;5.224;2023-04-26T01:22:46;152695.0;;;15.6;35.56
33913;BME280;20200;52.084;5.224;2023-04-26T01:25:59;152785.0;;;15.96;35.11
33913;BME280;20200;52.084;5.224;2023-04-26T01:27:35;152855.0;;;16.25;34.6
33913;BME280;20200;52.084;5.224;2023-04-26T01:29:13;152821.0;;;16.11;34.86
33913;BME280;20200;52.084;5.224;2023-04-26T01:32:26;152786.0;;;15.96;35.28
33913;BME280;20200;52.084;5.224;2023-04-26T01:34:02;152719.0;;;15.7;35.78
33913;BME280;20200;52.084;5.224;2023-04-26T01:35:38;152751.0;;;15.82;35.49
33913;BME280;20200;52.084;5.224;2023-04-26T01:37:15;152733.0;;;15.75;35.51
33913;BME280;20200;52.084;5.224;2023-04-26T01:40:27;152679.0;;;15.54;35.9
33913;BME280;20200;52.084;5.224;2023-04-26T01:42:04;152676.0;;;15.53;35.78
33913;BME280;20200;52.084;5.224;2023-04-26T01:43:40;152680.0;;;15.54;35.72
33913;BME280;20200;52.084;5.224;2023-04-26T01:46:52;152637.0;;;15.37;36.11
33913;BME280;20200;52.084;5.224;2023-04-26T01:48:29;152571.0;;;15.11;36.56
33913;BME280;20200;52.084;5.224;2023-04-26T01:50:06;152577.0;;;15.13;36.49
33913;BME280;20200;52.084;5.224;2023-04-26T01:53:18;152610.0;;;15.26;36.29
33913;BME280;20200;52.084;5.224;2023-04-26T01:54:55;152662.0;;;15.47;35.81
33913;BME280;20200;52.084;5.224;2023-04-26T01:56:31;152604.0;;;15.24;36.1
33913;BME280;20200;52.084;5.224;2023-04-26T01:58:07;152726.0;;;15.73;35.25
33913;BME280;20200;52.084;5.224;2023-04-26T02:01:19;152651.0;;;15.43;35.67
33913;BME280;20200;52.084;5.224;2023-04-26T02:02:56;152529.0;;;14.94;36.6
33913;BME280;20200;52.084;5.224;2023-04-26T02:04:34;152502.0;;;14.83;36.86
33913;BME280;20200;52.084;5.224;2023-04-26T02:07:46;152459.0;;;14.66;37.29
33913;BME280;20200;52.084;5.224;2023-04-26T02:09:22;152503.0;;;14.84;36.96
33913;BME280;20200;52.084;5.224;2023-04-26T02:10:58;152590.0;;;15.18;36.39
33913;BME280;20200;52.084;5.224;2023-04-26T02:14:11;152749.0;;;15.82;35.22
33913;BME280;20200;52.084;5.224;2023-04-26T02:15:47;152908.0;;;16.45;34.03
33913;BME280;20200;52.084;5.224;2023-04-26T02:17:24;152777.0;;;15.93;34.67
33913;BME280;20200;52.084;5.224;2023-04-26T02:19:02;152806.0;;;16.04;34.44
33913;BME280;20200;52.084;5.224;2023-04-26T02:22:15;152565.0;;;15.09;36.06
33913;BME280;20200;52.084;5.224;2023-04-26T02:23:51;152553.0;;;15.04;36.37
33913;BME280;20200;52.084;5.224;2023-04-26T02:25:27;152520.0;;;14.91;36.61
33913;BME280;20200;52.084;5.224;2023-04-26T02:28:40;152661.0;;;15.47;35.5
33913;BME280;20200;52.084;5.224;2023-04-26T02:30:17;152633.0;;;15.35;35.47
33913;BME280;20200;52.084;5.224;2023-04-26T02:31:53;152559.0;;;15.06;35.89
33913;BME280;20200;52.084;5.224;2023-04-26T02:35:06;152620.0;;;15.3;35.43
33913;BME280;20200;52.084;5.224;2023-04-26T02:36:42;152591.0;;;15.19;35.56
33913;BME280;20200;52.084;5.224;2023-04-26T02:38:18;152620.0;;;15.3;35.31
33913;BME280;20200;52.084;5.224;2023-04-26T02:41:31;152731.0;;;15.74;34.49
33913;BME280;20200;52.084;5.224;2023-04-26T02:43:08;152633.0;;;15.35;35.06
33913;BME280;20200;52.084;5.224;2023-04-26T02:44:44;152562.0;;;15.07;35.53
33913;BME280;20200;52.084;5.224;2023-04-26T02:46:21;152587.0;;;15.17;35.36
33913;BME280;20200;52.084;5.224;2023-04-26T02:49:35;152455.0;;;14.65;36.24
33913;BME280;20200;52.084;5.224;2023-04-26T02:51:11;152482.0;;;14.76;36.01
33913;BME280;20200;52.084;5.224;2023-04-26T02:52:47;152476.0;;;14.73;36.06
33913;BME280;20200;52.084;5.224;2023-04-26T02:56:00;152542.0;;;14.99;35.47
33913;BME280;20200;52.084;5.224;2023-04-26T02:57:36;152563.0;;;15.08;35.35
33913;BME280;20200;52.084;5.224;2023-04-26T02:59:12;152603.0;;;15.23;34.97
33913;BME280;20200;52.084;5.224;2023-04-26T03:02:24;152592.0;;;15.19;35.11
33913;BME280;20200;52.084;5.224;2023-04-26T03:04:00;152459.0;;;14.66;36.21
33913;BME280;20200;52.084;5.224;2023-04-26T03:05:37;152428.0;;;14.54;36.44
33913;BME280;20200;52.084;5.224;2023-04-26T03:07:13;152591.0;;;15.19;35.26
33913;BME280;20200;52.084;5.224;2023-04-26T03:10:26;152518.0;;;14.9;35.71
33913;BME280;20200;52.084;5.224;2023-04-26T03:12:02;152392.0;;;14.4;36.82
33913;BME280;20200;52.084;5.224;2023-04-26T03:13:38;152484.0;;;14.76;36.07
33913;BME280;20200;52.084;5.224;2023-04-26T03:16:50;152446.0;;;14.61;36.33
33913;BME280;20200;52.084;5.224;2023-04-26T03:18:26;152544.0;;;15.0;35.54
33913;BME280;20200;52.084;5.224;2023-04-26T03:20:03;152586.0;;;15.17;35.14
33913;BME280;20200;52.084;5.224;2023-04-26T03:23:16;152448.0;;;14.62;36.24
33913;BME280;20200;52.084;5.224;2023-04-26T03:24:52;152400.0;;;14.43;36.57
33913;BME280;20200;52.084;5.224;2023-04-26T03:26:28;152445.0;;;14.61;36.15
33913;BME280;20200;52.084;5.224;2023-04-26T03:28:04;152553.0;;;15.04;35.31
33913;BME280;20200;52.084;5.224;2023-04-26T03:31:16;152563.0;;;15.08;35.12
33913;BME280;20200;52.084;5.224;2023-04-26T03:32:52;152453.0;;;14.64;35.85
33913;BME280;20200;52.084;5.224;2023-04-26T03:34:29;152415.0;;;14.49;36.11
33913;BME280;20200;52.084;5.224;2023-04-26T03:37:42;152437.0;;;14.58;35.89
33913;BME280;20200;52.084;5.224;2023-04-26T03:39:19;152381.0;;;14.35;36.31
33913;BME280;20200;52.084;5.224;2023-04-26T03:40:55;152419.0;;;14.5;36.04
33913;BME280;20200;52.084;5.224;2023-04-26T03:44:07;152448.0;;;14.62;35.76
33913;BME280;20200;52.084;5.224;2023-04-26T03:45:46;152418.0;;;14.5;36.07
33913;BME280;20200;52.084;5.224;2023-04-26T03:47:21;152394.0;;;14.4;36.35
33913;BME280;20200;52.084;5.224;2023-04-26T03:50:34;152458.0;;;14.66;35.67
33913;BME280;20200;52.084;5.224;2023-04-26T03:52:10;152722.0;;;15.71;33.92
33913;BME280;20200;52.084;5.224;2023-04-26T03:53:46;152744.0;;;15.8;33.43
33913;BME280;20200;52.084;5.224;2023-04-26T03:55:22;152590.0;;;15.19;34.53
33913;BME280;20200;52.084;5.224;2023-04-26T03:58:34;152487.0;;;14.78;35.42
33913;BME280;20200;52.084;5.224;2023-04-26T04:00:12;152488.0;;;14.78;35.49
33913;BME280;20200;52.084;5.224;2023-04-26T04:01:48;152522.0;;;14.91;35.4
33913;BME280;20200;52.084;5.224;2023-04-26T04:05:00;152547.0;;;15.01;35.11
33913;BME280;20200;52.084;5.224;2023-04-26T04:06:36;152624.0;;;15.32;34.49
33913;BME280;20200;52.084;5.224;2023-04-26T04:08:12;152642.0;;;15.39;34.28
33913;BME280;20200;52.084;5.224;2023-04-26T04:11:24;152637.0;;;15.37;34.39
33913;BME280;20200;52.084;5.224;2023-04-26T04:13:00;152614.0;;;15.28;34.43
33913;BME280;20200;52.084;5.224;2023-04-26T04:14:37;152500.0;;;14.82;35.17
33913;BME280;20200;52.084;5.224;2023-04-26T04:16:13;152476.0;;;14.73;35.14
33913;BME280;20200;52.084;5.224;2023-04-26T04:19:26;152447.0;;;14.62;35.28
33913;BME280;20200;52.084;5.224;2023-04-26T04:21:02;152612.0;;;15.27;34.22
33913;BME280;20200;52.084;5.224;2023-04-26T04:22:38;152707.0;;;15.65;33.36
33913;BME280;20200;52.084;5.224;2023-04-26T04:25:50;152605.0;;;15.24;33.99
33913;BME280;20200;52.084;5.224;2023-04-26T04:27:26;152579.0;;;15.14;34.24
33913;BME280;20200;52.084;5.224;2023-04-26T04:29:03;152694.0;;;15.6;33.57
33913;BME280;20200;52.084;5.224;2023-04-26T04:32:16;152636.0;;;15.37;33.81
33913;BME280;20200;52.084;5.224;2023-04-26T04:33:52;152558.0;;;15.06;34.42
33913;BME280;20200;52.084;5.224;2023-04-26T04:35:29;152612.0;;;15.27;34.22
33913;BME280;20200;52.084;5.224;2023-04-26T04:37:06;152618.0;;;15.3;34.06
33913;BME280;20200;52.084;5.224;2023-04-26T04:40:18;152592.0;;;15.19;34.28
33913;BME280;20200;52.084;5.224;2023-04-26T04:41:55;152608.0;;;15.25;34.31
33913;BME280;20200;52.084;5.224;2023-04-26T04:43:31;152594.0;;;15.2;34.61
33913;BME280;20200;52.084;5.224;2023-04-26T04:46:44;152619.0;;;15.3;34.39
33913;BME280;20200;52.084;5.224;2023-04-26T04:48:20;152701.0;;;15.63;33.89
33913;BME280;20200;52.084;5.224;2023-04-26T04:49:56;152718.0;;;15.69;33.87
33913;BME280;20200;52.084;5.224;2023-04-26T04:53:08;152567.0;;;15.09;34.97
33913;BME280;20200;52.084;5.224;2023-04-26T04:54:44;152561.0;;;15.07;35.24
33913;BME280;20200;52.084;5.224;2023-04-26T04:56:21;152532.0;;;14.95;35.49
33913;BME280;20200;52.084;5.224;2023-04-26T04:59:33;152560.0;;;15.07;35.28
33913;BME280;20200;52.084;5.224;2023-04-26T05:01:09;152575.0;;;15.12;35.35
33913;BME280;20200;52.084;5.224;2023-04-26T05:02:45;152610.0;;;15.26;35.21
33913;BME280;20200;52.084;5.224;2023-04-26T05:04:21;152733.0;;;15.75;34.42
33913;BME280;20200;52.084;5.224;2023-04-26T05:07:34;152761.0;;;15.87;34.19
33913;BME280;20200;52.084;5.224;2023-04-26T05:09:10;152823.0;;;16.11;33.96
33913;BME280;20200;52.084;5.224;2023-04-26T05:10:47;152895.0;;;16.4;33.6
33913;BME280;20200;52.084;5.224;2023-04-26T05:13:59;152829.0;;;16.13;34.01
33913;BME280;20200;52.084;5.224;2023-04-26T05:15:35;152860.0;;;16.27;34.07
33913;BME280;20200;52.084;5.224;2023-04-26T05:17:11;152745.0;;;15.8;34.83
33913;BME280;20200;52.084;5.224;2023-04-26T05:20:24;152757.0;;;15.85;35.15
33913;BME280;20200;52.084;5.224;2023-04-26T05:22:00;152867.0;;;16.28;34.78
33913;BME280;20200;52.084;5.224;2023-04-26T05:23:38;152860.0;;;16.27;34.93
33913;BME280;20200;52.084;5.224;2023-04-26T05:25:14;152781.0;;;15.94;35.75
33913;BME280;20200;52.084;5.224;2023-04-26T05:28:26;152777.0;;;15.93;36.08
33913;BME280;20200;52.084;5.224;2023-04-26T05:30:03;152807.0;;;16.05;36.08
33913;BME280;20200;52.084;5.224;2023-04-26T05:31:39;152787.0;;;15.97;36.31
33913;BME280;20200;52.084;5.224;2023-04-26T05:34:51;152875.0;;;16.32;36.15
33913;BME280;20200;52.084;5.224;2023-04-26T05:36:28;152934.0;;;16.55;35.81
33913;BME280;20200;52.084;5.224;2023-04-26T05:38:04;153014.0;;;16.87;35.53
33913;BME280;20200;52.084;5.224;2023-04-26T05:41:16;153148.0;;;17.41;34.58
33913;BME280;20200;52.084;5.224;2023-04-26T05:42:52;153153.0;;;17.43;34.67
33913;BME280;20200;52.084;5.224;2023-04-26T05:44:28;153171.0;;;17.5;34.85
33913;BME280;20200;52.084;5.224;2023-04-26T05:47:41;153139.0;;;17.36;34.96
33913;BME280;20200;52.084;5.224;2023-04-26T05:49:17;153163.0;;;17.46;34.72
33913;BME280;20200;52.084;5.224;2023-04-26T05:50:53;153286.0;;;17.95;34.29
33913;BME280;20200;52.084;5.224;2023-04-26T05:52:29;153246.0;;;17.79;34.58
33913;BME280;20200;52.084;5.224;2023-04-26T05:55:42;153282.0;;;17.93;33.85
33913;BME280;20200;52.084;5.224;2023-04-26T05:57:17;153385.0;;;18.34;33.53
33913;BME280;20200;52.084;5.224;2023-04-26T05:58:54;153362.0;;;18.25;33.5
33913;BME280;20200;52.084;5.224;2023-04-26T06:02:06;153290.0;;;17.96;33.94
33913;BME280;20200;52.084;5.224;2023-04-26T06:03:43;153264.0;;;17.86;34.04
33913;BME280;20200;52.084;5.224;2023-04-26T06:05:20;153398.0;;;18.39;33.36
33913;BME280;20200;52.084;5.224;2023-04-26T06:08:32;153318.0;;;18.07;33.86
33913;BME280;20200;52.084;5.224;2023-04-26T06:10:09;153404.0;;;18.41;33.37
33913;BME280;20200;52.084;5.224;2023-04-26T06:11:46;153488.0;;;18.75;32.83
33913;BME280;20200;52.084;5.224;2023-04-26T06:13:22;153502.0;;;18.8;32.69
33913;BME280;20200;52.084;5.224;2023-04-26T06:16:34;153440.0;;;18.56;32.75
33913;BME280;20200;52.084;5.224;2023-04-26T06:18:10;153520.0;;;18.88;32.74
33913;BME280;20200;52.084;5.224;2023-04-26T06:19:46;153484.0;;;18.75;32.78
33913;BME280;20200;52.084;5.224;2023-04-26T06:22:59;153584.0;;;19.13;32.3
33913;BME280;20200;52.084;5.224;2023-04-26T06:24:36;153489.0;;;18.75;32.96
33913;BME280;20200;52.084;5.224;2023-04-26T06:26:12;153450.0;;;18.61;32.92
33913;BME280;20200;52.084;5.224;2023-04-26T06:29:24;153775.0;;;19.89;31.12
33913;BME280;20200;52.084;5.224;2023-04-26T06:31:00;153666.0;;;19.46;31.73
33913;BME280;20200;52.084;5.224;2023-04-26T06:32:37;153560.0;;;19.04;32.35
33913;BME280;20200;52.084;5.224;2023-04-26T06:35:50;153528.0;;;18.91;32.44
33913;BME280;20200;52.084;5.224;2023-04-26T06:37:26;153542.0;;;18.96;32.44
33913;BME280;20200;52.084;5.224;2023-04-26T06:39:03;153527.0;;;18.91;32.6
33913;BME280;20200;52.084;5.224;2023-04-26T06:40:39;153620.0;;;19.27;31.98
33913;BME280;20200;52.084;5.224;2023-04-26T06:43:51;153656.0;;;19.41;31.68
33913;BME280;20200;52.084;5.224;2023-04-26T06:45:28;153737.0;;;19.75;30.49
33913;BME280;20200;52.084;5.224;2023-04-26T06:47:05;153593.0;;;19.18;31.61
33913;BME280;20200;52.084;5.224;2023-04-26T06:50:18;153587.0;;;19.14;31.55
33913;BME280;20200;52.084;5.224;2023-04-26T06:51:54;153566.0;;;19.06;31.83
33913;BME280;20200;52.084;5.224;2023-04-26T06:53:30;153550.0;;;19.0;31.66
33913;BME280;20200;52.084;5.224;2023-04-26T06:56:43;153675.0;;;19.5;30.25
33913;BME280;20200;52.084;5.224;2023-04-26T06:58:20;153432.0;;;18.53;31.65
33913;BME280;20200;52.084;5.224;2023-04-26T06:59:56;153692.0;;;19.56;29.76
33913;BME280;20200;52.084;5.224;2023-04-26T07:01:33;153794.0;;;19.96;29.26
33913;BME280;20200;52.084;5.224;2023-04-26T07:04:46;153805.0;;;20.0;29.21
33913;BME280;20200;52.084;5.224;2023-04-26T07:06:23;153773.0;;;19.88;29.16
33913;BME280;20200;52.084;5.224;2023-04-26T07:08:00;153787.0;;;19.93;28.96
33913;BME280;20200;52.084;5.224;2023-04-26T07:11:12;153721.0;;;19.68;29.13
33913;BME280;20200;52.084;5.224;2023-04-26T07:12:48;153734.0;;;19.73;29.21
33913;BME280;20200;52.084;5.224;2023-04-26T07:14:25;153800.0;;;19.98;28.89
33913;BME280;20200;52.084;5.224;2023-04-26T07:17:37;153777.0;;;19.91;28.95
33913;BME280;20200;52.084;5.224;2023-04-26T07:19:13;153882.0;;;20.31;28.37
33913;BME280;20200;52.084;5.224;2023-04-26T07:20:48;153857.0;;;20.21;29.01
33913;BME280;20200;52.084;5.224;2023-04-26T07:22:24;153821.0;;;20.07;28.91
33913;BME280;20200;52.084;5.224;2023-04-26T07:25:36;153827.0;;;20.09;28.31
33913;BME280;20200;52.084;5.224;2023-04-26T07:27:13;153877.0;;;20.29;28.37
33913;BME280;20200;52.084;5.224;2023-04-26T07:28:49;153782.0;;;19.93;28.8
33913;BME280;20200;52.084;5.224;2023-04-26T07:32:02;153852.0;;;20.2;28.6
33913;BME280;20200;52.084;5.224;2023-04-26T07:33:38;153920.0;;;20.46;28.07
33913;BME280;20200;52.084;5.224;2023-04-26T07:35:14;153904.0;;;20.41;28.33
33913;BME280;20200;52.084;5.224;2023-04-26T07:38:27;153835.0;;;20.12;28.55
33913;BME280;20200;52.084;5.224;2023-04-26T07:40:04;153757.0;;;19.82;28.69
33913;BME280;20200;52.084;5.224;2023-04-26T07:41:40;153778.0;;;19.91;27.95
33913;BME280;20200;52.084;5.224;2023-04-26T07:44:53;153524.0;;;18.89;28.29
33913;BME280;20200;52.084;5.224;2023-04-26T07:46:29;153565.0;;;19.06;28.45
33913;BME280;20200;52.084;5.224;2023-04-26T07:48:07;153927.0;;;20.49;26.82
33913;BME280;20200;52.084;5.224;2023-04-26T07:49:43;153846.0;;;20.18;27.05
33913;BME280;20200;52.084;5.224;2023-04-26T07:52:56;153787.0;;;19.93;27.79
33913;BME280;20200;52.084;5.224;2023-04-26T07:54:32;153844.0;;;20.16;27.6
33913;BME280;20200;52.084;5.224;2023-04-26T07:56:08;153866.0;;;20.25;27.01
33913;BME280;20200;52.084;5.224;2023-04-26T07:59:20;154039.0;;;20.93;26.72
33913;BME280;20200;52.084;5.224;2023-04-26T08:02:32;154181.0;;;21.5;25.52
33913;BME280;20200;52.084;5.224;2023-04-26T08:05:45;154174.0;;;21.47;25.31
33913;BME280;20200;52.084;5.224;2023-04-26T08:07:21;154035.0;;;20.92;25.63
33913;BME280;20200;52.084;5.224;2023-04-26T08:08:57;154144.0;;;21.35;25.3
33913;BME280;20200;52.084;5.224;2023-04-26T08:10:33;154097.0;;;21.16;25.08
33913;BME280;20200;52.084;5.224;2023-04-26T08:13:46;154030.0;;;20.9;25.25
33913;BME280;20200;52.084;5.224;2023-04-26T08:15:23;154115.0;;;21.23;24.74
33913;BME280;20200;52.084;5.224;2023-04-26T08:16:58;154060.0;;;21.02;24.88
33913;BME280;20200;52.084;5.224;2023-04-26T08:20:12;153890.0;;;20.34;25.85
33913;BME280;20200;52.084;5.224;2023-04-26T08:21:48;154018.0;;;20.85;25.22
33913;BME280;20200;52.084;5.224;2023-04-26T08:23:24;154010.0;;;20.82;25.59
33913;BME280;20200;52.084;5.224;2023-04-26T08:26:36;154006.0;;;20.8;25.36
33913;BME280;20200;52.084;5.224;2023-04-26T08:28:12;153924.0;;;20.48;26.1
33913;BME280;20200;52.084;5.224;2023-04-26T08:29:49;153967.0;;;20.65;25.89
33913;BME280;20200;52.084;5.224;2023-04-26T08:33:01;154015.0;;;20.84;25.77
33913;BME280;20200;52.084;5.224;2023-04-26T08:34:38;153883.0;;;20.32;25.68
33913;BME280;20200;52.084;5.224;2023-04-26T08:36:14;153879.0;;;20.3;26.09
33913;BME280;20200;52.084;5.224;2023-04-26T08:37:50;153960.0;;;20.62;25.84
33913;BME280;20200;52.084;5.224;2023-04-26T08:41:04;153948.0;;;20.57;25.9
33913;BME280;20200;52.084;5.224;2023-04-26T08:42:41;153936.0;;;20.52;26.2
33913;BME280;20200;52.084;5.224;2023-04-26T08:44:21;154086.0;;;21.12;26.06
33913;BME280;20200;52.084;5.224;2023-04-26T08:47:39;154273.0;;;21.86;25.29
33913;BME280;20200;52.084;5.224;2023-04-26T08:49:25;154439.0;;;22.52;24.5
33913;BME280;20200;52.084;5.224;2023-04-26T08:51:11;154303.0;;;21.98;25.06
33913;BME280;20200;52.084;5.224;2023-04-26T08:52:49;154170.0;;;21.45;25.49
33913;BME280;20200;52.084;5.224;2023-04-26T08:54:27;154437.0;;;22.51;24.31
33913;BME280;20200;52.084;5.224;2023-04-26T08:57:42;154447.0;;;22.55;24.38
33913;BME280;20200;52.084;5.224;2023-04-26T08:59:19;154350.0;;;22.16;24.64
33913;BME280;20200;52.084;5.224;2023-04-26T09:00:55;154210.0;;;21.61;24.9
33913;BME280;20200;52.084;5.224;2023-04-26T09:04:10;154220.0;;;21.65;24.63
33913;BME280;20200;52.084;5.224;2023-04-26T09:05:47;154228.0;;;21.68;24.84
33913;BME280;20200;52.084;5.224;2023-04-26T09:07:30;154436.0;;;22.5;24.11
33913;BME280;20200;52.084;5.224;2023-04-26T09:09:07;154533.0;;;22.89;24.0
33913;BME280;20200;52.084;5.224;2023-04-26T09:12:22;154539.0;;;22.91;23.74
33913;BME280;20200;52.084;5.224;2023-04-26T09:13:58;154500.0;;;22.76;23.21
33913;BME280;20200;52.084;5.224;2023-04-26T09:15:34;154577.0;;;23.06;23.1
33913;BME280;20200;52.084;5.224;2023-04-26T09:19:01;154498.0;;;22.75;23.47
33913;BME280;20200;52.084;5.224;2023-04-26T09:20:37;154457.0;;;22.59;23.72
33913;BME280;20200;52.084;5.224;2023-04-26T09:22:13;154420.0;;;22.44;24.01
33913;BME280;20200;52.084;5.224;2023-04-26T09:23:56;154249.0;;;21.76;24.81
33913;BME280;20200;52.084;5.224;2023-04-26T09:27:10;154264.0;;;21.82;25.07
33913;BME280;20200;52.084;5.224;2023-04-26T09:28:46;154441.0;;;22.52;24.1
33913;BME280;20200;52.084;5.224;2023-04-26T09:30:23;154420.0;;;22.44;23.88
33913;BME280;20200;52.084;5.224;2023-04-26T09:33:56;154231.0;;;21.69;24.32
33913;BME280;20200;52.084;5.224;2023-04-26T09:35:33;154460.0;;;22.6;23.96
33913;BME280;20200;52.084;5.224;2023-04-26T09:37:10;154307.0;;;21.99;24.33
33913;BME280;20200;52.084;5.224;2023-04-26T09:38:46;154413.0;;;22.41;23.98
33913;BME280;20200;52.084;5.224;2023-04-26T09:42:02;154647.0;;;23.34;23.12
33913;BME280;20200;52.084;5.224;2023-04-26T09:43:39;154489.0;;;22.71;23.29
33913;BME280;20200;52.084;5.224;2023-04-26T09:45:16;154334.0;;;22.1;23.1
33913;BME280;20200;52.084;5.224;2023-04-26T09:47:00;154493.0;;;22.73;22.74
33913;BME280;20200;52.084;5.224;2023-04-26T09:50:24;154546.0;;;22.94;22.43
33913;BME280;20200;52.084;5.224;2023-04-26T09:52:03;154486.0;;;22.7;22.72
33913;BME280;20200;52.084;5.224;2023-04-26T09:53:40;154523.0;;;22.85;22.57
33913;BME280;20200;52.084;5.224;2023-04-26T09:55:25;154674.0;;;23.45;22.0
33913;BME280;20200;52.084;5.224;2023-04-26T09:58:55;154840.0;;;24.1;21.47
33913;BME280;20200;52.084;5.224;2023-04-26T10:00:33;154653.0;;;23.36;21.99
33913;BME280;20200;52.084;5.224;2023-04-26T10:02:13;154758.0;;;23.78;21.41
33913;BME280;20200;52.084;5.224;2023-04-26T10:03:50;154832.0;;;24.07;21.04
33913;BME280;20200;52.084;5.224;2023-04-26T10:07:04;154559.0;;;22.99;22.12
33913;BME280;20200;52.084;5.224;2023-04-26T10:08:41;154762.0;;;23.79;21.2
33913;BME280;20200;52.084;5.224;2023-04-26T10:10:18;154500.0;;;22.76;22.01
33913;BME280;20200;52.084;5.224;2023-04-26T10:11:55;154570.0;;;23.04;22.0
33913;BME280;20200;52.084;5.224;2023-04-26T10:15:10;154661.0;;;23.39;22.43
33913;BME280;20200;52.084;5.224;2023-04-26T10:16:48;154713.0;;;23.6;21.31
33913;BME280;20200;52.084;5.224;2023-04-26T10:18:24;154527.0;;;22.87;21.86
33913;BME280;20200;52.084;5.224;2023-04-26T10:21:40;154555.0;;;22.97;21.85
33913;BME280;20200;52.084;5.224;2023-04-26T10:23:19;154215.0;;;21.63;23.17
33913;BME280;20200;52.084;5.224;2023-04-26T10:24:57;154357.0;;;22.19;22.8
33913;BME280;20200;52.084;5.224;2023-04-26T10:26:49;154287.0;;;21.91;23.27
33913;BME280;20200;52.084;5.224;2023-04-26T10:30:53;154287.0;;;21.92;23.38
33913;BME280;20200;52.084;5.224;2023-04-26T10:32:29;154153.0;;;21.38;23.68
33913;BME280;20200;52.084;5.224;2023-04-26T10:34:21;154275.0;;;21.87;23.55
33913;BME280;20200;52.084;5.224;2023-04-26T10:36:08;154253.0;;;21.78;23.27
33913;BME280;20200;52.084;5.224;2023-04-26T10:38:21;154030.0;;;20.9;24.64
33913;BME280;20200;52.084;5.224;2023-04-26T10:40:22;153972.0;;;20.67;24.92
33913;BME280;20200;52.084;5.224;2023-04-26T10:42:16;153935.0;;;20.52;25.33
33913;BME280;20200;52.084;5.224;2023-04-26T10:44:39;153906.0;;;20.41;25.83
33913;BME280;20200;52.084;5.224;2023-04-26T10:46:36;153875.0;;;20.28;26.01
33913;BME280;20200;52.084;5.224;2023-04-26T10:48:15;154058.0;;;21.01;25.06
33913;BME280;20200;52.084;5.224;2023-04-26T10:50:06;154118.0;;;21.24;24.79
33913;BME280;20200;52.084;5.224;2023-04-26T10:52:16;154157.0;;;21.4;24.67
33913;BME280;20200;52.084;5.224;2023-04-26T10:53:58;154117.0;;;21.24;25.03
33913;BME280;20200;52.084;5.224;2023-04-26T10:57:14;154021.0;;;20.86;25.34
33913;BME280;20200;52.084;5.224;2023-04-26T10:59:06;154168.0;;;21.45;24.9
33913;BME280;20200;52.084;5.224;2023-04-26T11:01:02;154265.0;;;21.83;24.49
33913;BME280;20200;52.084;5.224;2023-04-26T11:02:43;154174.0;;;21.47;24.53
33913;BME280;20200;52.084;5.224;2023-04-26T11:04:19;154458.0;;;22.59;23.44
33913;BME280;20200;52.084;5.224;2023-04-26T11:07:36;154408.0;;;22.39;23.66
33913;BME280;20200;52.084;5.224;2023-04-26T11:09:47;154469.0;;;22.64;23.61